sensor_id;sensor_type;location;lat;lon;timestamp;P1;durP1;ratioP1;P2;durP2;ratioP2
40367;SDS011;26075;43.320;21.920;2022-11-24T00:03:56;10.88;;;7.10;;
40367;SDS011;26075;43.320;21.920;2022-11-24T00:08:58;10.82;;;7.97;;
40367;SDS011;26075;43.320;21.920;2022-11-24T00:14:00;13.85;;;8.45;;
40367;SDS011;26075;43.320;21.920;2022-11-24T00:19:02;10.20;;;8.10;;
40367;SDS011;26075;43.320;21.920;2022-11-24T00:24:04;9.90;;;8.13;;
40367;SDS011;26075;43.320;21.920;2022-11-24T00:29:06;11.05;;;7.38;;
40367;SDS011;26075;43.320;21.920;2022-11-24T00:34:10;10.63;;;7.38;;
40367;SDS011;26075;43.320;21.920;2022-11-24T00:45:09;8.18;;;6.35;;
40367;SDS011;26075;43.320;21.920;2022-11-24T00:50:10;10.88;;;6.70;;
40367;SDS011;26075;43.320;21.920;2022-11-24T00:55:11;9.50;;;7.05;;
40367;SDS011;26075;43.320;21.920;2022-11-24T01:06:10;8.40;;;6.78;;
40367;SDS011;26075;43.320;21.920;2022-11-24T01:11:14;7.85;;;5.53;;
40367;SDS011;26075;43.320;21.920;2022-11-24T01:16:17;8.90;;;5.68;;
40367;SDS011;26075;43.320;21.920;2022-11-24T01:21:22;10.02;;;5.50;;
40367;SDS011;26075;43.320;21.920;2022-11-24T01:26:23;7.43;;;5.63;;
40367;SDS011;26075;43.320;21.920;2022-11-24T01:31:24;7.75;;;5.03;;
40367;SDS011;26075;43.320;21.920;2022-11-24T01:36:26;6.32;;;5.35;;
40367;SDS011;26075;43.320;21.920;2022-11-24T01:53:20;5.88;;;4.20;;
40367;SDS011;26075;43.320;21.920;2022-11-24T01:58:23;6.22;;;4.38;;
40367;SDS011;26075;43.320;21.920;2022-11-24T02:03:30;6.72;;;4.68;;
40367;SDS011;26075;43.320;21.920;2022-11-24T02:13:38;11.20;;;9.23;;
40367;SDS011;26075;43.320;21.920;2022-11-24T02:18:40;9.68;;;6.35;;
40367;SDS011;26075;43.320;21.920;2022-11-24T02:23:49;8.90;;;6.63;;
40367;SDS011;26075;43.320;21.920;2022-11-24T02:29:13;5.85;;;4.70;;
40367;SDS011;26075;43.320;21.920;2022-11-24T02:34:14;6.53;;;4.30;;
40367;SDS011;26075;43.320;21.920;2022-11-24T02:45:13;6.47;;;5.00;;
40367;SDS011;26075;43.320;21.920;2022-11-24T02:50:15;6.45;;;4.78;;
40367;SDS011;26075;43.320;21.920;2022-11-24T02:55:16;8.98;;;4.93;;
40367;SDS011;26075;43.320;21.920;2022-11-24T03:00:17;6.20;;;4.10;;
40367;SDS011;26075;43.320;21.920;2022-11-24T03:10:47;5.70;;;4.50;;
40367;SDS011;26075;43.320;21.920;2022-11-24T03:15:48;5.90;;;4.63;;
40367;SDS011;26075;43.320;21.920;2022-11-24T03:20:49;5.80;;;4.80;;
40367;SDS011;26075;43.320;21.920;2022-11-24T03:25:50;6.40;;;4.82;;
40367;SDS011;26075;43.320;21.920;2022-11-24T03:30:51;7.13;;;4.70;;
40367;SDS011;26075;43.320;21.920;2022-11-24T03:35:52;7.22;;;5.63;;
40367;SDS011;26075;43.320;21.920;2022-11-24T03:40:53;5.65;;;4.53;;
40367;SDS011;26075;43.320;21.920;2022-11-24T03:45:54;5.13;;;4.20;;
40367;SDS011;26075;43.320;21.920;2022-11-24T03:50:56;7.78;;;4.10;;
40367;SDS011;26075;43.320;21.920;2022-11-24T03:55:59;4.55;;;3.22;;
40367;SDS011;26075;43.320;21.920;2022-11-24T04:01:11;5.13;;;3.45;;
40367;SDS011;26075;43.320;21.920;2022-11-24T04:06:12;4.78;;;3.33;;
40367;SDS011;26075;43.320;21.920;2022-11-24T04:22:10;6.10;;;4.40;;
40367;SDS011;26075;43.320;21.920;2022-11-24T04:27:11;4.40;;;2.50;;
40367;SDS011;26075;43.320;21.920;2022-11-24T04:32:12;4.40;;;2.58;;
40367;SDS011;26075;43.320;21.920;2022-11-24T04:42:41;3.88;;;2.60;;
40367;SDS011;26075;43.320;21.920;2022-11-24T04:47:42;3.55;;;2.20;;
40367;SDS011;26075;43.320;21.920;2022-11-24T04:52:51;6.10;;;3.00;;
40367;SDS011;26075;43.320;21.920;2022-11-24T04:57:51;5.22;;;2.35;;
40367;SDS011;26075;43.320;21.920;2022-11-24T05:02:52;5.75;;;3.03;;
40367;SDS011;26075;43.320;21.920;2022-11-24T05:07:53;6.93;;;3.15;;
40367;SDS011;26075;43.320;21.920;2022-11-24T05:18:51;6.03;;;3.88;;
40367;SDS011;26075;43.320;21.920;2022-11-24T05:23:53;6.93;;;4.15;;
40367;SDS011;26075;43.320;21.920;2022-11-24T05:28:54;5.43;;;3.65;;
40367;SDS011;26075;43.320;21.920;2022-11-24T05:33:55;6.32;;;4.28;;
40367;SDS011;26075;43.320;21.920;2022-11-24T05:49:54;5.85;;;3.40;;
40367;SDS011;26075;43.320;21.920;2022-11-24T05:54:55;5.22;;;3.42;;
40367;SDS011;26075;43.320;21.920;2022-11-24T05:59:56;6.05;;;3.03;;
40367;SDS011;26075;43.320;21.920;2022-11-24T06:04:57;6.18;;;4.22;;
40367;SDS011;26075;43.320;21.920;2022-11-24T06:09:58;10.30;;;6.35;;
40367;SDS011;26075;43.320;21.920;2022-11-24T06:14:59;13.40;;;7.85;;
40367;SDS011;26075;43.320;21.920;2022-11-24T06:25:57;18.40;;;7.70;;
40367;SDS011;26075;43.320;21.920;2022-11-24T06:30:59;11.75;;;6.53;;
40367;SDS011;26075;43.320;21.920;2022-11-24T06:36:01;9.38;;;5.65;;
40367;SDS011;26075;43.320;21.920;2022-11-24T06:41:13;7.63;;;5.10;;
40367;SDS011;26075;43.320;21.920;2022-11-24T06:51:27;7.43;;;5.18;;
40367;SDS011;26075;43.320;21.920;2022-11-24T07:02:09;7.18;;;4.93;;
40367;SDS011;26075;43.320;21.920;2022-11-24T07:07:10;7.15;;;4.78;;
40367;SDS011;26075;43.320;21.920;2022-11-24T07:12:11;8.30;;;5.50;;
40367;SDS011;26075;43.320;21.920;2022-11-24T07:17:12;9.10;;;5.85;;
40367;SDS011;26075;43.320;21.920;2022-11-24T07:22:13;11.38;;;6.05;;
40367;SDS011;26075;43.320;21.920;2022-11-24T07:32:35;7.18;;;4.78;;
40367;SDS011;26075;43.320;21.920;2022-11-24T07:43:08;9.70;;;7.18;;
40367;SDS011;26075;43.320;21.920;2022-11-24T07:48:09;18.02;;;10.65;;
40367;SDS011;26075;43.320;21.920;2022-11-24T07:58:56;19.75;;;12.10;;
40367;SDS011;26075;43.320;21.920;2022-11-24T08:04:04;22.13;;;11.05;;
40367;SDS011;26075;43.320;21.920;2022-11-24T08:09:05;16.88;;;11.93;;
40367;SDS011;26075;43.320;21.920;2022-11-24T08:20:05;9.60;;;6.28;;
40367;SDS011;26075;43.320;21.920;2022-11-24T08:25:22;12.90;;;8.40;;
40367;SDS011;26075;43.320;21.920;2022-11-24T08:30:25;21.33;;;9.45;;
40367;SDS011;26075;43.320;21.920;2022-11-24T08:41:07;16.55;;;11.05;;
40367;SDS011;26075;43.320;21.920;2022-11-24T08:46:10;22.27;;;12.85;;
40367;SDS011;26075;43.320;21.920;2022-11-24T08:57:03;20.65;;;12.45;;
40367;SDS011;26075;43.320;21.920;2022-11-24T09:19:00;13.95;;;8.40;;
40367;SDS011;26075;43.320;21.920;2022-11-24T09:24:02;11.38;;;8.27;;
40367;SDS011;26075;43.320;21.920;2022-11-24T09:29:04;12.35;;;7.60;;
40367;SDS011;26075;43.320;21.920;2022-11-24T09:34:25;17.98;;;8.13;;
40367;SDS011;26075;43.320;21.920;2022-11-24T09:39:26;10.13;;;6.70;;
40367;SDS011;26075;43.320;21.920;2022-11-24T10:00:27;14.10;;;10.23;;
40367;SDS011;26075;43.320;21.920;2022-11-24T10:05:29;14.35;;;9.18;;
40367;SDS011;26075;43.320;21.920;2022-11-24T10:28:02;15.45;;;8.70;;
40367;SDS011;26075;43.320;21.920;2022-11-24T10:33:11;11.93;;;8.73;;
40367;SDS011;26075;43.320;21.920;2022-11-24T10:44:15;13.68;;;9.02;;
40367;SDS011;26075;43.320;21.920;2022-11-24T10:49:23;14.18;;;9.00;;
40367;SDS011;26075;43.320;21.920;2022-11-24T10:54:27;12.65;;;7.63;;
40367;SDS011;26075;43.320;21.920;2022-11-24T11:10:26;12.18;;;7.25;;
40367;SDS011;26075;43.320;21.920;2022-11-24T11:15:28;10.05;;;6.57;;
40367;SDS011;26075;43.320;21.920;2022-11-24T11:20:32;11.88;;;7.10;;
40367;SDS011;26075;43.320;21.920;2022-11-24T11:25:34;18.98;;;8.63;;
40367;SDS011;26075;43.320;21.920;2022-11-24T11:42:15;13.15;;;5.85;;
40367;SDS011;26075;43.320;21.920;2022-11-24T11:52:54;9.20;;;5.80;;
40367;SDS011;26075;43.320;21.920;2022-11-24T12:24:14;9.55;;;5.78;;
40367;SDS011;26075;43.320;21.920;2022-11-24T12:45:38;14.02;;;7.55;;
40367;SDS011;26075;43.320;21.920;2022-11-24T12:51:02;11.65;;;7.03;;
40367;SDS011;26075;43.320;21.920;2022-11-24T12:56:08;18.55;;;8.48;;
40367;SDS011;26075;43.320;21.920;2022-11-24T13:01:45;12.90;;;8.10;;
40367;SDS011;26075;43.320;21.920;2022-11-24T13:12:54;15.18;;;9.25;;
40367;SDS011;26075;43.320;21.920;2022-11-24T13:23:41;16.30;;;10.32;;
40367;SDS011;26075;43.320;21.920;2022-11-24T13:29:42;19.42;;;10.15;;
40367;SDS011;26075;43.320;21.920;2022-11-24T13:55:54;14.73;;;10.02;;
40367;SDS011;26075;43.320;21.920;2022-11-24T14:01:02;16.85;;;10.48;;
40367;SDS011;26075;43.320;21.920;2022-11-24T14:11:26;19.98;;;12.45;;
40367;SDS011;26075;43.320;21.920;2022-11-24T14:21:40;19.05;;;11.52;;
40367;SDS011;26075;43.320;21.920;2022-11-24T14:26:44;20.02;;;12.65;;
40367;SDS011;26075;43.320;21.920;2022-11-24T14:37:24;13.38;;;9.65;;
40367;SDS011;26075;43.320;21.920;2022-11-24T14:42:25;19.48;;;12.43;;
40367;SDS011;26075;43.320;21.920;2022-11-24T14:52:32;20.07;;;12.87;;
40367;SDS011;26075;43.320;21.920;2022-11-24T15:13:27;26.77;;;14.98;;
40367;SDS011;26075;43.320;21.920;2022-11-24T15:18:36;23.70;;;14.23;;
40367;SDS011;26075;43.320;21.920;2022-11-24T15:23:42;18.88;;;12.82;;
40367;SDS011;26075;43.320;21.920;2022-11-24T15:29:04;17.35;;;11.75;;
40367;SDS011;26075;43.320;21.920;2022-11-24T15:39:44;19.60;;;11.75;;
40367;SDS011;26075;43.320;21.920;2022-11-24T15:45:01;19.77;;;12.73;;
40367;SDS011;26075;43.320;21.920;2022-11-24T15:50:01;25.10;;;14.30;;
40367;SDS011;26075;43.320;21.920;2022-11-24T16:00:53;26.23;;;14.70;;
40367;SDS011;26075;43.320;21.920;2022-11-24T16:11:23;23.25;;;14.18;;
40367;SDS011;26075;43.320;21.920;2022-11-24T16:16:24;23.55;;;16.40;;
40367;SDS011;26075;43.320;21.920;2022-11-24T16:21:25;24.75;;;15.85;;
40367;SDS011;26075;43.320;21.920;2022-11-24T16:26:26;19.85;;;13.80;;
40367;SDS011;26075;43.320;21.920;2022-11-24T16:31:27;22.50;;;14.93;;
40367;SDS011;26075;43.320;21.920;2022-11-24T16:36:28;21.15;;;14.02;;
40367;SDS011;26075;43.320;21.920;2022-11-24T16:41:29;18.35;;;10.63;;
40367;SDS011;26075;43.320;21.920;2022-11-24T16:52:26;21.45;;;14.27;;
40367;SDS011;26075;43.320;21.920;2022-11-24T17:03:24;16.77;;;11.55;;
40367;SDS011;26075;43.320;21.920;2022-11-24T17:08:25;15.93;;;10.63;;
40367;SDS011;26075;43.320;21.920;2022-11-24T17:13:26;22.13;;;14.75;;
40367;SDS011;26075;43.320;21.920;2022-11-24T17:18:27;21.27;;;15.55;;
40367;SDS011;26075;43.320;21.920;2022-11-24T17:23:28;23.92;;;14.30;;
40367;SDS011;26075;43.320;21.920;2022-11-24T17:34:05;25.13;;;14.95;;
40367;SDS011;26075;43.320;21.920;2022-11-24T17:45:03;20.25;;;13.95;;
40367;SDS011;26075;43.320;21.920;2022-11-24T17:50:05;19.00;;;14.35;;
40367;SDS011;26075;43.320;21.920;2022-11-24T17:55:06;28.52;;;14.70;;
40367;SDS011;26075;43.320;21.920;2022-11-24T18:11:15;14.35;;;10.45;;
40367;SDS011;26075;43.320;21.920;2022-11-24T18:16:19;15.98;;;9.68;;
40367;SDS011;26075;43.320;21.920;2022-11-24T18:21:21;16.42;;;9.82;;
40367;SDS011;26075;43.320;21.920;2022-11-24T18:26:22;13.82;;;9.88;;
40367;SDS011;26075;43.320;21.920;2022-11-24T18:37:20;25.48;;;8.27;;
40367;SDS011;26075;43.320;21.920;2022-11-24T18:42:21;14.05;;;9.02;;
40367;SDS011;26075;43.320;21.920;2022-11-24T18:53:22;15.55;;;9.70;;
40367;SDS011;26075;43.320;21.920;2022-11-24T18:58:25;15.25;;;10.15;;
40367;SDS011;26075;43.320;21.920;2022-11-24T19:09:24;23.25;;;12.80;;
40367;SDS011;26075;43.320;21.920;2022-11-24T19:14:25;19.55;;;10.90;;
40367;SDS011;26075;43.320;21.920;2022-11-24T19:19:26;16.48;;;10.88;;
40367;SDS011;26075;43.320;21.920;2022-11-24T19:24:28;14.45;;;9.27;;
40367;SDS011;26075;43.320;21.920;2022-11-24T19:29:29;17.40;;;11.38;;
40367;SDS011;26075;43.320;21.920;2022-11-24T19:45:27;11.93;;;8.07;;
40367;SDS011;26075;43.320;21.920;2022-11-24T19:50:28;11.85;;;8.40;;
40367;SDS011;26075;43.320;21.920;2022-11-24T19:55:29;17.50;;;11.25;;
40367;SDS011;26075;43.320;21.920;2022-11-24T20:00:31;29.60;;;17.45;;
40367;SDS011;26075;43.320;21.920;2022-11-24T20:16:30;27.98;;;15.10;;
40367;SDS011;26075;43.320;21.920;2022-11-24T20:21:32;38.03;;;25.65;;
40367;SDS011;26075;43.320;21.920;2022-11-24T20:26:34;31.58;;;16.70;;
40367;SDS011;26075;43.320;21.920;2022-11-24T20:31:41;41.17;;;29.10;;
40367;SDS011;26075;43.320;21.920;2022-11-24T20:36:44;47.97;;;32.88;;
40367;SDS011;26075;43.320;21.920;2022-11-24T20:41:46;52.22;;;36.53;;
40367;SDS011;26075;43.320;21.920;2022-11-24T20:46:47;57.22;;;39.72;;
40367;SDS011;26075;43.320;21.920;2022-11-24T20:51:48;56.25;;;41.10;;
40367;SDS011;26075;43.320;21.920;2022-11-24T20:56:53;58.40;;;39.10;;
40367;SDS011;26075;43.320;21.920;2022-11-24T21:01:54;44.38;;;31.60;;
40367;SDS011;26075;43.320;21.920;2022-11-24T21:06:56;44.13;;;31.88;;
40367;SDS011;26075;43.320;21.920;2022-11-24T21:11:57;44.53;;;29.48;;
40367;SDS011;26075;43.320;21.920;2022-11-24T21:22:55;32.33;;;23.83;;
40367;SDS011;26075;43.320;21.920;2022-11-24T21:27:57;31.25;;;23.17;;
40367;SDS011;26075;43.320;21.920;2022-11-24T21:32:58;47.85;;;32.08;;
40367;SDS011;26075;43.320;21.920;2022-11-24T21:38:01;44.53;;;30.08;;
40367;SDS011;26075;43.320;21.920;2022-11-24T21:43:02;45.60;;;31.17;;
40367;SDS011;26075;43.320;21.920;2022-11-24T21:48:03;50.55;;;32.22;;
40367;SDS011;26075;43.320;21.920;2022-11-24T21:53:04;38.65;;;26.13;;
40367;SDS011;26075;43.320;21.920;2022-11-24T22:04:02;42.63;;;28.98;;
40367;SDS011;26075;43.320;21.920;2022-11-24T22:09:03;46.65;;;31.02;;
40367;SDS011;26075;43.320;21.920;2022-11-24T22:14:07;51.92;;;34.90;;
40367;SDS011;26075;43.320;21.920;2022-11-24T22:25:05;47.80;;;32.00;;
40367;SDS011;26075;43.320;21.920;2022-11-24T22:30:07;35.35;;;23.88;;
40367;SDS011;26075;43.320;21.920;2022-11-24T22:46:14;28.65;;;21.85;;
40367;SDS011;26075;43.320;21.920;2022-11-24T23:02:15;23.65;;;15.48;;
40367;SDS011;26075;43.320;21.920;2022-11-24T23:07:21;20.88;;;14.20;;
40367;SDS011;26075;43.320;21.920;2022-11-24T23:12:22;20.63;;;13.35;;
40367;SDS011;26075;43.320;21.920;2022-11-24T23:17:23;16.35;;;11.63;;
40367;SDS011;26075;43.320;21.920;2022-11-24T23:28:11;18.00;;;11.70;;
40367;SDS011;26075;43.320;21.920;2022-11-24T23:33:12;19.67;;;13.30;;
40367;SDS011;26075;43.320;21.920;2022-11-24T23:38:13;15.68;;;11.52;;
40367;SDS011;26075;43.320;21.920;2022-11-24T23:43:14;17.42;;;11.60;;
40367;SDS011;26075;43.320;21.920;2022-11-24T23:54:12;15.05;;;9.88;;
40367;SDS011;26075;43.320;21.920;2022-11-24T23:59:13;15.02;;;11.02;;
